createdAt,value
2017-11-26T00:01:00.704Z,82.30
2017-11-26T00:03:29.029Z,82.00
2017-11-26T00:05:57.309Z,82.20
2017-11-26T00:08:25.595Z,82.40
2017-11-26T00:10:53.904Z,82.60
2017-11-26T00:13:22.182Z,82.60
2017-11-26T00:15:50.490Z,82.90
2017-11-26T00:18:18.776Z,82.80
2017-11-26T00:20:47.082Z,83.00
2017-11-26T00:23:15.366Z,83.20
2017-11-26T00:25:43.698Z,83.20
2017-11-26T00:28:11.992Z,83.20
2017-11-26T00:30:40.277Z,82.90
2017-11-26T00:33:08.585Z,83.20
2017-11-26T00:35:36.862Z,83.40
2017-11-26T00:38:05.170Z,83.40
2017-11-26T00:40:33.449Z,83.30
2017-11-26T00:43:01.745Z,83.30
2017-11-26T00:45:30.029Z,83.50
2017-11-26T00:47:58.357Z,83.30
2017-11-26T00:50:26.642Z,83.20
2017-11-26T00:52:54.925Z,83.30
2017-11-26T00:55:23.232Z,83.00
2017-11-26T00:57:51.523Z,82.70
2017-11-26T01:00:19.831Z,82.70
2017-11-26T01:02:48.124Z,82.90
2017-11-26T01:05:16.434Z,82.90
2017-11-26T01:07:44.737Z,82.90
2017-11-26T01:10:13.053Z,82.80
2017-11-26T01:12:41.337Z,83.10
2017-11-26T01:15:09.621Z,83.00
2017-11-26T01:17:37.930Z,83.00
2017-11-26T01:20:06.216Z,83.10
2017-11-26T01:22:40.301Z,82.90
2017-11-26T01:25:08.589Z,82.90
2017-11-26T01:27:36.894Z,83.00
2017-11-26T01:30:05.173Z,83.10
2017-11-26T01:32:33.492Z,83.10
2017-11-26T01:35:01.769Z,82.80
2017-11-26T01:37:30.053Z,82.60
2017-11-26T01:39:58.357Z,82.60
2017-11-26T01:42:26.647Z,82.60
2017-11-26T01:44:54.948Z,82.30
2017-11-26T01:47:23.233Z,82.10
2017-11-26T01:49:51.561Z,82.50
2017-11-26T01:52:19.850Z,82.50
2017-11-26T01:54:48.139Z,82.30
2017-11-26T01:57:16.442Z,82.80
2017-11-26T01:59:44.725Z,82.80
2017-11-26T02:02:13.029Z,83.00
2017-11-26T02:04:41.310Z,83.10
2017-11-26T02:07:09.631Z,83.10
2017-11-26T02:09:37.914Z,83.30
2017-11-26T02:12:06.202Z,83.50
2017-11-26T02:14:34.506Z,83.60
2017-11-26T02:17:02.785Z,83.50
2017-11-26T02:19:31.089Z,83.00
2017-11-26T02:21:59.373Z,82.90
2017-11-26T02:24:27.708Z,83.00
2017-11-26T02:26:55.998Z,83.00
2017-11-26T02:29:24.286Z,83.00
2017-11-26T02:32:04.517Z,82.80
2017-11-26T02:34:44.690Z,82.40
2017-11-26T02:37:13.008Z,82.40
2017-11-26T02:39:41.326Z,82.50
2017-11-26T02:42:09.629Z,82.60
2017-11-26T02:44:37.923Z,82.20
2017-11-26T02:47:06.260Z,82.30
2017-11-26T02:49:34.550Z,82.50
2017-11-26T02:52:02.066Z,82.50
2017-11-26T02:54:29.604Z,82.70
2017-11-26T02:56:57.896Z,82.10
2017-11-26T02:59:26.208Z,81.70
2017-11-26T03:01:54.498Z,81.90
2017-11-26T03:04:22.827Z,81.30
2017-11-26T03:06:51.118Z,81.40
2017-11-26T03:09:19.402Z,81.30
2017-11-26T03:11:47.713Z,81.40
2017-11-26T03:14:16.003Z,81.50
2017-11-26T03:16:44.311Z,81.80
2017-11-26T03:19:12.593Z,81.80
2017-11-26T03:21:40.906Z,81.80
2017-11-26T03:24:09.200Z,81.20
2017-11-26T03:26:37.541Z,81.60
2017-11-26T03:29:05.837Z,81.70
2017-11-26T03:31:34.118Z,81.60
2017-11-26T03:34:02.416Z,81.80
2017-11-26T03:36:30.698Z,82.20
2017-11-26T03:38:58.226Z,82.10
2017-11-26T03:41:26.505Z,82.00
2017-11-26T03:43:54.817Z,82.10
2017-11-26T03:46:23.101Z,82.20
2017-11-26T03:48:51.394Z,82.20
2017-11-26T03:51:19.699Z,82.20
2017-11-26T03:53:47.986Z,81.70
2017-11-26T03:56:16.294Z,81.80
2017-11-26T03:58:44.583Z,82.10
2017-11-26T04:01:13.767Z,82.20
2017-11-26T04:03:42.051Z,81.90
2017-11-26T04:06:10.343Z,82.20
2017-11-26T04:08:38.646Z,82.40
2017-11-26T04:11:06.926Z,82.70
2017-11-26T04:13:35.230Z,82.70
2017-11-26T04:16:03.514Z,82.80
2017-11-26T04:18:31.833Z,82.70
2017-11-26T04:21:00.126Z,82.70
2017-11-26T04:23:27.645Z,82.70
2017-11-26T04:25:55.959Z,82.80
2017-11-26T04:28:24.241Z,83.10
2017-11-26T04:30:52.566Z,83.20
2017-11-26T04:33:20.853Z,83.40
2017-11-26T04:35:49.185Z,83.60
2017-11-26T04:38:17.475Z,83.60
2017-11-26T04:40:45.763Z,83.50
2017-11-26T04:43:14.066Z,83.00
2017-11-26T04:45:42.355Z,83.10
2017-11-26T04:48:10.658Z,82.80
2017-11-26T04:50:38.955Z,82.50
2017-11-26T04:53:07.268Z,82.30
2017-11-26T04:55:34.781Z,82.30
2017-11-26T04:58:03.061Z,81.90
2017-11-26T05:00:31.370Z,81.90
2017-11-26T05:02:59.666Z,82.00
2017-11-26T05:05:27.970Z,82.10
2017-11-26T05:07:56.257Z,82.40
2017-11-26T05:10:24.558Z,82.40
2017-11-26T05:12:52.842Z,82.30
2017-11-26T05:15:21.126Z,82.20
2017-11-26T05:17:49.434Z,82.40
2017-11-26T05:20:17.721Z,82.30
2017-11-26T05:22:46.026Z,82.50
2017-11-26T05:25:14.317Z,83.50
2017-11-26T05:27:42.630Z,82.60
2017-11-26T05:30:10.933Z,82.60
2017-11-26T05:32:39.257Z,82.70
2017-11-26T05:35:07.549Z,82.70
2017-11-26T05:37:35.843Z,82.90
2017-11-26T05:40:04.150Z,83.10
2017-11-26T05:42:32.431Z,83.10
2017-11-26T05:45:00.739Z,83.10
2017-11-26T05:47:29.021Z,83.20
2017-11-26T05:49:57.326Z,84.20
2017-11-26T05:52:25.618Z,83.30
2017-11-26T05:54:53.950Z,83.50
2017-11-26T05:57:22.241Z,83.60
2017-11-26T05:59:50.530Z,84.60
2017-11-26T06:02:18.841Z,83.90
2017-11-26T06:04:47.127Z,84.90
2017-11-26T06:07:15.438Z,84.10
2017-11-26T06:09:43.726Z,84.00
2017-11-26T06:12:11.270Z,84.00
2017-11-26T06:14:38.785Z,84.10
2017-11-26T06:17:07.103Z,84.00
2017-11-26T06:19:35.405Z,83.90
2017-11-26T06:22:03.686Z,83.70
2017-11-26T06:24:31.991Z,83.60
2017-11-26T06:27:00.282Z,83.60
2017-11-26T06:29:28.587Z,83.40
2017-11-26T06:31:56.878Z,83.20
2017-11-26T06:34:25.188Z,83.30
2017-11-26T06:36:53.469Z,83.20
2017-11-26T06:39:21.790Z,82.90
2017-11-26T06:41:50.073Z,82.50
2017-11-26T06:44:18.368Z,82.50
2017-11-26T06:46:46.678Z,82.50
2017-11-26T06:49:14.971Z,82.30
2017-11-26T06:51:43.282Z,82.10
2017-11-26T06:54:11.562Z,82.00
2017-11-26T06:56:39.874Z,82.90
2017-11-26T06:59:08.161Z,81.70
2017-11-26T07:01:36.480Z,81.80
2017-11-26T07:04:04.766Z,81.40
2017-11-26T07:06:33.058Z,81.10
2017-11-26T07:09:01.366Z,81.00
2017-11-26T07:11:29.662Z,81.00
2017-11-26T07:13:57.980Z,82.20
2017-11-26T07:16:26.277Z,81.60
2017-11-26T07:18:54.588Z,81.60
2017-11-26T07:21:22.881Z,81.60
2017-11-26T07:23:51.201Z,81.60
2017-11-26T07:26:19.498Z,81.50
2017-11-26T07:28:47.797Z,81.60
2017-11-26T07:31:15.332Z,81.60
2017-11-26T07:33:42.848Z,81.70
2017-11-26T07:36:11.158Z,81.90
2017-11-26T07:38:39.450Z,81.80
2017-11-26T07:41:07.753Z,81.70
2017-11-26T07:43:36.033Z,81.70
2017-11-26T07:46:04.342Z,81.40
2017-11-26T07:48:32.625Z,81.50
2017-11-26T07:51:00.912Z,81.60
2017-11-26T07:53:29.221Z,81.70
2017-11-26T07:55:57.500Z,81.70
2017-11-26T07:58:25.806Z,81.70
2017-11-26T08:00:54.099Z,81.20
2017-11-26T08:03:22.406Z,81.30
2017-11-26T08:05:50.700Z,81.40
2017-11-26T08:08:19.049Z,81.10
2017-11-26T08:10:47.330Z,81.20
2017-11-26T08:13:15.615Z,80.80
2017-11-26T08:15:43.921Z,81.00
2017-11-26T08:18:12.202Z,81.10
2017-11-26T08:20:40.506Z,81.10
2017-11-26T08:23:08.794Z,81.00
2017-11-26T08:25:37.841Z,80.80
2017-11-26T08:28:06.121Z,80.90
2017-11-26T08:30:34.412Z,80.60
2017-11-26T08:33:02.717Z,80.50
2017-11-26T08:35:30.995Z,80.30
2017-11-26T08:37:59.304Z,80.40
2017-11-26T08:40:27.606Z,79.80
2017-11-26T08:42:55.925Z,79.80
2017-11-26T08:45:24.218Z,80.20
2017-11-26T08:47:52.539Z,80.20
2017-11-26T08:50:20.828Z,80.10
2017-11-26T08:52:49.118Z,80.00
2017-11-26T08:55:17.425Z,79.80
2017-11-26T08:57:45.722Z,79.50
2017-11-26T09:00:14.037Z,79.10
2017-11-26T09:02:42.330Z,79.30
2017-11-26T09:05:10.638Z,79.00
2017-11-26T09:07:38.927Z,79.20
2017-11-26T09:10:07.235Z,78.90
2017-11-26T09:12:35.526Z,79.20
2017-11-26T09:15:04.018Z,79.70
2017-11-26T09:17:32.305Z,79.00
2017-11-26T09:20:00.611Z,79.40
2017-11-26T09:22:28.934Z,78.90
2017-11-26T09:24:57.246Z,79.00
2017-11-26T09:27:25.537Z,79.30
2017-11-26T09:29:53.838Z,78.90
2017-11-26T09:32:22.141Z,78.00
2017-11-26T09:34:50.435Z,78.20
2017-11-26T09:37:18.732Z,78.70
2017-11-26T09:39:47.017Z,78.60
2017-11-26T09:42:15.322Z,79.10
2017-11-26T09:44:43.620Z,79.20
2017-11-26T09:47:11.950Z,79.40
2017-11-26T09:49:40.238Z,79.00
2017-11-26T09:52:08.530Z,77.00
2017-11-26T09:54:36.833Z,77.30
2017-11-26T09:57:05.123Z,77.20
2017-11-26T09:59:33.433Z,77.20
2017-11-26T10:02:01.720Z,76.90
2017-11-26T10:04:30.031Z,77.00
2017-11-26T10:06:58.313Z,76.00
2017-11-26T10:09:26.613Z,76.40
2017-11-26T10:11:54.902Z,76.70
2017-11-26T10:14:23.205Z,76.10
2017-11-26T10:16:51.489Z,75.90
2017-11-26T10:19:19.025Z,75.80
2017-11-26T10:21:47.305Z,74.70
2017-11-26T10:24:15.617Z,74.90
2017-11-26T10:26:43.906Z,74.80
2017-11-26T10:29:12.221Z,74.30
2017-11-26T10:31:40.871Z,73.50
2017-11-26T10:34:09.215Z,73.90
2017-11-26T10:36:37.899Z,72.80
2017-11-26T10:39:06.202Z,73.20
2017-11-26T10:41:34.482Z,72.70
2017-11-26T10:44:02.782Z,72.70
2017-11-26T10:46:31.070Z,73.40
2017-11-26T10:48:59.385Z,73.80
2017-11-26T10:51:27.677Z,73.50
2017-11-26T10:53:55.983Z,73.30
2017-11-26T10:56:24.283Z,72.80
2017-11-26T10:58:52.597Z,72.90
2017-11-26T11:01:20.888Z,73.30
2017-11-26T11:03:49.199Z,73.20
2017-11-26T11:06:17.486Z,73.10
2017-11-26T11:08:45.787Z,72.50
2017-11-26T11:11:14.071Z,71.90
2017-11-26T11:13:42.378Z,72.60
2017-11-26T11:16:10.662Z,72.70
2017-11-26T11:18:38.973Z,72.60
2017-11-26T11:21:07.308Z,72.70
2017-11-26T11:23:35.615Z,71.70
2017-11-26T11:26:03.923Z,71.40
2017-11-26T11:28:32.202Z,71.30
2017-11-26T11:31:00.511Z,71.80
2017-11-26T11:33:28.025Z,71.80
2017-11-26T11:35:56.330Z,71.10
2017-11-26T11:38:24.614Z,71.70
2017-11-26T11:40:52.922Z,72.00
2017-11-26T11:43:21.201Z,72.50
2017-11-26T11:45:49.513Z,72.40
2017-11-26T11:48:17.797Z,72.40
2017-11-26T11:50:46.102Z,72.30
2017-11-26T11:53:14.386Z,72.60
2017-11-26T11:55:43.643Z,73.40
2017-11-26T11:58:11.941Z,73.80
2017-11-26T12:00:40.273Z,74.40
2017-11-26T12:03:08.567Z,74.20
2017-11-26T12:05:37.065Z,74.60
2017-11-26T12:08:05.358Z,75.40
2017-11-26T12:10:33.671Z,75.50
2017-11-26T12:13:01.962Z,75.20
2017-11-26T12:15:30.271Z,74.90
2017-11-26T12:17:58.562Z,74.70
2017-11-26T12:20:26.865Z,74.80
2017-11-26T12:22:55.169Z,74.40
2017-11-26T12:25:23.465Z,73.70
2017-11-26T12:27:51.758Z,74.10
2017-11-26T12:30:20.071Z,73.80
2017-11-26T12:32:48.355Z,73.00
2017-11-26T12:35:16.665Z,72.90
2017-11-26T12:37:44.949Z,72.70
2017-11-26T12:40:13.257Z,72.30
2017-11-26T12:42:41.632Z,73.00
2017-11-26T12:45:09.169Z,73.00
2017-11-26T12:47:37.511Z,74.80
2017-11-26T12:50:05.823Z,75.00
2017-11-26T12:52:34.113Z,75.10
2017-11-26T12:55:02.419Z,75.90
2017-11-26T12:57:30.710Z,76.10
2017-11-26T12:59:59.007Z,75.00
2017-11-26T13:02:27.317Z,74.80
2017-11-26T13:04:55.596Z,75.10
2017-11-26T13:07:23.898Z,75.20
2017-11-26T13:09:52.178Z,75.70
2017-11-26T13:12:20.482Z,75.90
2017-11-26T13:14:48.766Z,76.20
2017-11-26T13:17:17.078Z,76.80
2017-11-26T13:19:45.371Z,77.00
2017-11-26T13:22:13.690Z,76.10
2017-11-26T13:24:41.974Z,76.30
2017-11-26T13:27:10.282Z,76.20
2017-11-26T13:29:38.569Z,75.90
2017-11-26T13:32:06.879Z,76.30
2017-11-26T13:34:35.165Z,76.40
2017-11-26T13:37:03.473Z,76.50
2017-11-26T13:39:31.770Z,76.60
2017-11-26T13:42:00.078Z,76.30
2017-11-26T13:44:28.373Z,76.70
2017-11-26T13:46:56.700Z,76.60
2017-11-26T13:49:24.989Z,75.90
2017-11-26T13:51:53.310Z,75.30
2017-11-26T13:54:21.593Z,76.10
2017-11-26T13:56:49.898Z,75.60
2017-11-26T13:59:18.185Z,76.00
2017-11-26T14:01:46.497Z,76.50
2017-11-26T14:04:15.629Z,76.50
2017-11-26T14:06:43.933Z,77.10
2017-11-26T14:09:12.220Z,77.70
2017-11-26T14:11:40.535Z,78.10
2017-11-26T14:14:08.952Z,78.10
2017-11-26T14:16:37.265Z,78.60
2017-11-26T14:19:05.554Z,78.80
2017-11-26T14:21:34.649Z,79.00
2017-11-26T14:24:02.941Z,79.10
2017-11-26T14:26:31.249Z,79.40
2017-11-26T14:28:59.533Z,78.60
2017-11-26T14:31:27.848Z,78.90
2017-11-26T14:33:56.133Z,79.30
2017-11-26T14:36:24.471Z,79.40
2017-11-26T14:38:52.753Z,79.20
2017-11-26T14:41:21.038Z,79.00
2017-11-26T14:43:49.350Z,79.10
2017-11-26T14:46:17.642Z,78.40
2017-11-26T14:48:45.177Z,78.30
2017-11-26T14:51:13.467Z,78.60
2017-11-26T14:53:41.782Z,78.30
2017-11-26T14:56:10.074Z,78.50
2017-11-26T14:58:38.381Z,78.70
2017-11-26T15:01:06.679Z,79.00
2017-11-26T15:03:35.009Z,78.90
2017-11-26T15:06:03.302Z,78.90
2017-11-26T15:08:31.618Z,78.90
2017-11-26T15:10:59.910Z,78.80
2017-11-26T15:13:28.251Z,79.00
2017-11-26T15:15:56.549Z,79.10
2017-11-26T15:18:24.855Z,79.50
2017-11-26T15:20:53.142Z,79.70
2017-11-26T15:23:21.449Z,80.00
2017-11-26T15:25:49.733Z,80.30
2017-11-26T15:28:18.037Z,80.50
2017-11-26T15:30:45.562Z,80.50
2017-11-26T15:33:13.871Z,80.50
2017-11-26T15:35:42.167Z,80.30
2017-11-26T15:38:10.474Z,80.50
2017-11-26T15:40:38.762Z,80.60
2017-11-26T15:43:07.081Z,80.60
2017-11-26T15:45:35.374Z,80.80
2017-11-26T15:48:03.681Z,80.60
2017-11-26T15:50:31.970Z,80.60
2017-11-26T15:53:00.282Z,80.70
2017-11-26T15:55:28.654Z,80.70
2017-11-26T15:57:56.983Z,80.60
2017-11-26T16:00:25.314Z,80.40
2017-11-26T16:02:53.616Z,80.40
2017-11-26T16:05:21.908Z,80.70
2017-11-26T16:07:50.211Z,80.60
2017-11-26T16:10:18.506Z,80.40
2017-11-26T16:12:46.863Z,80.20
2017-11-26T16:15:15.162Z,80.40
2017-11-26T16:17:43.458Z,80.30
2017-11-26T16:20:11.761Z,80.20
2017-11-26T16:22:40.067Z,80.30
2017-11-26T16:25:08.381Z,80.40
2017-11-26T16:27:36.666Z,80.40
2017-11-26T16:30:04.978Z,80.50
2017-11-26T16:32:33.279Z,80.50
2017-11-26T16:35:00.818Z,80.50
2017-11-26T16:37:29.107Z,80.10
2017-11-26T16:39:57.418Z,80.10
2017-11-26T16:42:25.713Z,80.30
2017-11-26T16:44:54.026Z,80.40
2017-11-26T16:47:22.305Z,80.30
2017-11-26T16:49:50.614Z,80.30
2017-11-26T16:52:18.905Z,80.30
2017-11-26T16:54:47.223Z,80.40
2017-11-26T16:57:15.545Z,80.40
2017-11-26T16:59:43.830Z,80.30
2017-11-26T17:02:12.109Z,80.20
2017-11-26T17:04:40.421Z,80.30
2017-11-26T17:07:08.706Z,80.50
2017-11-26T17:09:37.015Z,80.60
2017-11-26T17:12:05.310Z,80.60
2017-11-26T17:14:33.623Z,80.60
2017-11-26T17:17:02.287Z,80.80
2017-11-26T17:19:30.621Z,80.80
2017-11-26T17:21:58.901Z,80.80
2017-11-26T17:24:27.211Z,80.60
2017-11-26T17:26:55.503Z,80.30
2017-11-26T17:29:23.810Z,80.50
2017-11-26T17:31:52.102Z,80.90
2017-11-26T17:34:20.413Z,80.90
2017-11-26T17:36:48.707Z,80.70
2017-11-26T17:39:17.027Z,80.60
2017-11-26T17:41:45.313Z,80.50
2017-11-26T17:44:13.629Z,80.60
2017-11-26T17:46:41.926Z,80.90
2017-11-26T17:49:10.248Z,80.50
2017-11-26T17:51:38.537Z,81.20
2017-11-26T17:54:06.856Z,80.10
2017-11-26T17:56:35.163Z,80.40
2017-11-26T17:59:03.458Z,81.50
2017-11-26T18:01:31.767Z,80.80
2017-11-26T18:04:00.058Z,80.80
2017-11-26T18:06:28.370Z,80.70
2017-11-26T18:08:56.662Z,80.80
2017-11-26T18:11:24.975Z,81.20
2017-11-26T18:13:53.257Z,80.80
2017-11-26T18:16:21.566Z,80.90
2017-11-26T18:18:49.862Z,80.80
2017-11-26T18:21:18.168Z,80.50
2017-11-26T18:23:46.465Z,81.30
2017-11-26T18:26:14.769Z,80.50
2017-11-26T18:28:43.058Z,80.60
2017-11-26T18:31:11.371Z,80.80
2017-11-26T18:33:39.651Z,80.90
2017-11-26T18:36:07.959Z,80.90
2017-11-26T18:38:36.257Z,81.00
2017-11-26T18:41:04.561Z,80.90
2017-11-26T18:43:32.855Z,80.90
2017-11-26T18:46:01.165Z,80.80
2017-11-26T18:48:28.693Z,80.80
2017-11-26T18:50:57.009Z,80.60
2017-11-26T18:53:25.289Z,80.60
2017-11-26T18:55:53.593Z,80.50
2017-11-26T18:58:21.877Z,81.40
2017-11-26T19:00:50.192Z,80.50
2017-11-26T19:03:18.481Z,80.50
2017-11-26T19:05:46.789Z,80.40
2017-11-26T19:08:15.078Z,80.40
2017-11-26T19:10:43.381Z,80.40
2017-11-26T19:13:11.669Z,80.30
2017-11-26T19:15:39.978Z,80.10
2017-11-26T19:18:08.257Z,79.90
2017-11-26T19:20:36.571Z,79.70
2017-11-26T19:23:04.854Z,79.70
2017-11-26T19:25:33.162Z,79.80
2017-11-26T19:28:01.466Z,79.80
2017-11-26T19:30:29.799Z,79.60
2017-11-26T19:32:58.091Z,79.50
2017-11-26T19:35:26.389Z,79.40
2017-11-26T19:37:54.693Z,79.60
2017-11-26T19:40:22.990Z,79.70
2017-11-26T19:42:51.341Z,79.80
2017-11-26T19:45:19.642Z,79.70
2017-11-26T19:47:47.973Z,79.90
2017-11-26T19:50:16.266Z,79.70
2017-11-26T19:52:44.574Z,80.00
2017-11-26T19:55:13.737Z,80.00
2017-11-26T19:57:42.047Z,80.40
2017-11-26T20:00:10.333Z,80.30
2017-11-26T20:02:38.648Z,80.10
2017-11-26T20:05:06.952Z,80.40
2017-11-26T20:07:35.261Z,80.80
2017-11-26T20:10:03.550Z,80.90
2017-11-26T20:12:31.900Z,81.90
2017-11-26T20:15:00.199Z,81.40
2017-11-26T20:17:28.505Z,81.70
2017-11-26T20:19:56.837Z,81.60
2017-11-26T20:22:25.145Z,81.80
2017-11-26T20:24:53.457Z,81.60
2017-11-26T20:27:21.818Z,81.60
2017-11-26T20:29:50.101Z,81.30
2017-11-26T20:32:18.410Z,81.50
2017-11-26T20:34:46.694Z,81.60
2017-11-26T20:37:15.001Z,81.50
2017-11-26T20:39:43.318Z,81.30
2017-11-26T20:42:11.645Z,81.30
2017-11-26T20:44:39.149Z,81.30
2017-11-26T20:47:07.466Z,81.40
2017-11-26T20:49:35.758Z,81.40
2017-11-26T20:52:04.074Z,81.40
2017-11-26T20:54:32.362Z,81.20
2017-11-26T20:57:00.668Z,81.30
2017-11-26T20:59:28.955Z,81.40
2017-11-26T21:01:57.295Z,80.90
2017-11-26T21:04:25.598Z,81.50
2017-11-26T21:06:53.894Z,81.50
2017-11-26T21:09:22.215Z,81.90
2017-11-26T21:11:50.516Z,82.40
2017-11-26T21:14:18.838Z,82.40
2017-11-26T21:16:47.134Z,82.50
2017-11-26T21:19:15.454Z,82.60
2017-11-26T21:21:43.747Z,82.70
2017-11-26T21:24:12.075Z,82.90
2017-11-26T21:26:40.366Z,82.90
2017-11-26T21:29:08.664Z,82.70
2017-11-26T21:31:36.970Z,82.40
2017-11-26T21:34:05.261Z,82.50
2017-11-26T21:36:33.596Z,82.40
2017-11-26T21:39:01.871Z,83.10
2017-11-26T21:41:30.182Z,82.30
2017-11-26T21:43:58.470Z,82.40
2017-11-26T21:46:26.778Z,82.60
2017-11-26T21:48:55.063Z,82.60
2017-11-26T21:51:23.385Z,83.30
2017-11-26T21:53:50.906Z,82.50
2017-11-26T21:56:19.189Z,82.90
2017-11-26T21:58:47.499Z,83.10
2017-11-26T22:01:15.789Z,83.20
2017-11-26T22:03:44.097Z,83.20
2017-11-26T22:06:12.387Z,83.30
2017-11-26T22:08:40.698Z,83.30
2017-11-26T22:11:08.986Z,83.30
2017-11-26T22:13:37.523Z,83.10
2017-11-26T22:16:05.809Z,82.90
2017-11-26T22:18:34.097Z,82.70
2017-11-26T22:21:02.410Z,82.70
2017-11-26T22:23:30.698Z,82.70
2017-11-26T22:25:59.010Z,82.50
2017-11-26T22:28:27.294Z,82.40
2017-11-26T22:30:55.604Z,82.30
2017-11-26T22:33:23.885Z,82.10
2017-11-26T22:35:52.208Z,82.10
2017-11-26T22:38:20.498Z,82.20
2017-11-26T22:40:48.786Z,82.00
2017-11-26T22:43:17.096Z,81.90
2017-11-26T22:45:45.386Z,81.80
2017-11-26T22:48:13.696Z,81.80
2017-11-26T22:50:41.982Z,81.80
2017-11-26T22:53:10.295Z,81.60
2017-11-26T22:55:38.579Z,81.40
2017-11-26T22:58:06.924Z,81.30
2017-11-26T23:00:35.201Z,81.40
2017-11-26T23:03:03.481Z,81.50
2017-11-26T23:05:31.783Z,81.70
2017-11-26T23:08:00.074Z,81.60
2017-11-26T23:10:28.376Z,81.60
2017-11-26T23:12:56.657Z,81.60
2017-11-26T23:15:24.976Z,81.40
2017-11-26T23:17:53.262Z,81.20
2017-11-26T23:20:21.550Z,81.30
2017-11-26T23:22:49.860Z,81.30
2017-11-26T23:25:18.150Z,81.30
2017-11-26T23:27:46.457Z,81.40
2017-11-26T23:30:14.750Z,81.30
2017-11-26T23:32:43.073Z,81.20
2017-11-26T23:35:11.352Z,81.20
2017-11-26T23:37:39.637Z,81.30
2017-11-26T23:40:07.938Z,81.30
2017-11-26T23:42:36.220Z,81.40
2017-11-26T23:45:04.516Z,81.30
2017-11-26T23:47:32.803Z,81.40
2017-11-26T23:50:01.107Z,81.60
2017-11-26T23:52:29.402Z,81.70
2017-11-26T23:54:57.734Z,81.60
2017-11-26T23:57:26.018Z,81.70
2017-11-26T23:59:54.306Z,81.50
